Track Кшевецкая Маргарита

Time Latitude Longitude Accuracy (66% radius in meters) Altitude (meters) Speed (km/hour) Bearing (degrees) Battery (%) GPS flag
08:59:49 60.403365 30.325120 90.048004150391 81 0 0 48 1 delete
08:59:36 60.403365 30.325120 102.91200256348 84 0 0 48 1 delete
09:59:28 60.403459 30.325112 51.456001281738 84 1.6100000143051 171.69999694824 48 0 delete
08:58:19 60.403459 30.325112 51.456001281738 84 1.6100000143051 171.69999694824 48 1 delete
08:58:07 60.403538 30.324915 47.167999267578 84 0 0 48 1 delete
08:57:46 60.403537 30.324923 33.232002258301 84 0 0 48 1 delete
08:57:35 60.403565 30.324953 6.4320001602173 84 0.46999999880791 145.69999694824 48 1 delete
08:57:23 60.403501 30.324906 3.2160000801086 83 1.2300000190735 306.39999389648 48 1 delete
08:57:12 60.403508 30.324988 3.2160000801086 82 0 0 48 1 delete
08:57:00 60.403510 30.324973 9.6480007171631 83 0 0 48 1 delete
08:56:48 60.403512 30.324975 3.2160000801086 82 0 0 48 1 delete
08:56:37 60.403511 30.324975 3.2160000801086 81 0 0 48 1 delete
08:56:25 60.403513 30.324995 3.2160000801086 81 0 0 48 1 delete
08:56:13 60.403515 30.324985 3.2160000801086 81 0 0 48 1 delete
08:56:02 60.403508 30.324985 3.2160000801086 82 0.15000000596046 156.19999694824 48 1 delete
08:55:51 60.403497 30.324997 3.2160000801086 84 1.6299999952316 73.900001525879 48 1 delete
08:55:39 60.403482 30.324999 9.6480007171631 84 0 0 48 1 delete
08:55:28 60.403484 30.324993 9.6480007171631 85 0 0 48 1 delete
08:55:17 60.403484 30.325007 9.6480007171631 85 0 0 50 1 delete
08:55:06 60.403485 30.325007 9.6480007171631 85 0 0 50 1 delete
08:54:55 60.403496 30.325001 9.6480007171631 85 0 0 50 1 delete
08:54:48 60.403515 30.324964 9.6480007171631 84 1.6499999761581 291.39999389648 50 1 delete
08:54:44 60.403494 30.325015 9.6480007171631 85 1.6399999856949 329.10000610352 50 1 delete
08:54:39 60.403468 30.325119 10.720000267029 83 1.6499999761581 277 50 1 delete
08:54:34 60.403477 30.325233 10.720000267029 79 1.6499999761581 264.70001220703 50 1 delete
08:54:28 60.403488 30.325329 10.720000267029 80 1.6599999666214 243.19999694824 50 1 delete
08:54:23 60.403505 30.325423 10.720000267029 82 1.6699999570847 269.29998779297 50 1 delete
08:54:20 60.403527 30.325502 10.720000267029 81 1.6699999570847 256.39999389648 50 1 delete
08:54:12 60.403526 30.325656 9.6480007171631 81 1.6799999475479 280.60000610352 50 1 delete
08:54:10 60.403515 30.325699 9.6480007171631 81 1.6900000572205 279.70001220703 50 1 delete
08:54:04 60.403478 30.325869 9.6480007171631 82 1.6900000572205 285.20001220703 50 1 delete
08:54:01 60.403478 30.325905 9.6480007171631 82 1.7000000476837 276.39999389648 50 1 delete
08:53:52 60.403460 30.326051 10.720000267029 83 1.710000038147 279.89999389648 50 1 delete
08:53:50 60.403456 30.326088 9.6480007171631 82 1.7200000286102 279.79998779297 50 1 delete
08:53:43 60.403417 30.326233 9.6480007171631 78 1.7300000190735 294.5 50 1 delete
08:53:39 60.403396 30.326355 9.6480007171631 79 1.7300000190735 290.60000610352 50 1 delete
08:53:35 60.403395 30.326447 9.6480007171631 80 1.7400000095367 277.60000610352 50 1 delete
08:53:28 60.403369 30.326614 9.6480007171631 80 1.75 295.60000610352 50 1 delete
08:53:27 60.403364 30.326635 9.6480007171631 80 0.86000001430511 302.70001220703 50 1 delete
08:53:17 60.403340 30.326677 9.6480007171631 81 0.34999999403954 46.099998474121 50 1 delete
08:53:06 60.403326 30.326687 10.720000267029 83 0 0 50 1 delete
08:52:56 60.403300 30.326767 10.720000267029 83 1.789999961853 303.70001220703 50 1 delete
08:52:55 60.403286 30.326790 9.6480007171631 83 1.789999961853 305.10000610352 50 1 delete
08:52:50 60.403234 30.326924 9.6480007171631 83 1.8099999427795 296.89999389648 50 1 delete
08:52:44 60.403225 30.327079 10.720000267029 82 1.2999999523163 267.5 50 1 delete
08:52:41 60.403223 30.327138 10.720000267029 84 1.8099999427795 275.10000610352 50 1 delete
08:52:36 60.403204 30.327348 5.3600001335144 84 1.7999999523163 293.79998779297 50 1 delete
08:52:33 60.403192 30.327450 5.3600001335144 83 1.789999961853 298.29998779297 50 1 delete
08:52:30 60.403167 30.327529 5.3600001335144 82 1.7799999713898 318 50 1 delete
08:52:23 60.403108 30.327693 5.3600001335144 80 1.8099999427795 286 50 1 delete